»·PEaware :: N417TS KSAN-KSBA

N417TS :: KSAN-KSBA

FLIGHT INFORMATION

Flight Status: Arrived
Operator: Privately registered:
United States
More flights under this callsign
Pilot: Arnold Y. (19526)
Aircraft: Unknown
(DA62)
More flights by this aircraft type
Origin: KSAN San Diego Intl-Lindbergh
United States
Destination: KSBA Santa Barbara Mun
United States
More flights between these airports :: More routes between these airports
Route: OCN V23 LAX V299 VTU VTU282R KWANG
File this flight plan on PilotEdge
Remarks: TEC SANP35
Altitude:
(Current/Filed)
6,000ft
Speed:
(Current/Filed)
150kts
Departed: 31-Jul-20 04:03 PM
Arrived: 31-Jul-20 05:11 PM
Distance/Time
Traveled:
167nm/1:08
Distance/Time
To Go:
Arrived

Flight Plot

Page will automatically refresh every two minutes.


Map Options




Map Legend


Flown Route
Filed Route
Departure Airport
Arrival Airport
Navaid (VOR, NDB)
Fix

Horizontal Profiles

Position Reports

Time Latitude Longitude Heading Altitude Ground
Speed
31-Jul-20 15:50 32.733482 -117.178838 15 20ft 0kts
31-Jul-20 15:51 32.733482 -117.178838 15 20ft 0kts
31-Jul-20 15:52 32.733482 -117.178838 15 20ft 0kts
31-Jul-20 15:53 32.733482 -117.178838 15 20ft 0kts
31-Jul-20 15:54 32.733482 -117.178838 15 20ft 0kts
31-Jul-20 15:55 32.733482 -117.178838 15 20ft 0kts
31-Jul-20 15:56 32.733482 -117.178838 15 20ft 0kts
31-Jul-20 15:57 32.733482 -117.178838 15 20ft 0kts
31-Jul-20 15:58 32.732743 -117.179752 197 20ft 11kts
31-Jul-20 15:59 32.731412 -117.176174 107 20ft 10kts
31-Jul-20 16:00 32.730987 -117.175559 144 20ft 0kts
31-Jul-20 16:01 32.730241 -117.175958 284 20ft 19kts
31-Jul-20 16:02 32.737381 -117.203935 298 608ft 110kts
31-Jul-20 16:03 32.761422 -117.227655 321 1704ft 116kts
31-Jul-20 16:04 32.786632 -117.250087 321 2682ft 118kts
31-Jul-20 16:05 32.812456 -117.272693 321 3626ft 120kts
31-Jul-20 16:06 32.839671 -117.296410 321 4583ft 123kts
31-Jul-20 16:07 32.867766 -117.320027 337 5520ft 127kts
31-Jul-20 16:08 32.904799 -117.330202 345 5994ft 156kts
31-Jul-20 16:09 32.948651 -117.341614 345 6402ft 154kts
31-Jul-20 16:10 32.990410 -117.352470 345 6980ft 154kts
31-Jul-20 16:11 33.032288 -117.363381 344 7533ft 154kts
31-Jul-20 16:12 33.074668 -117.374453 343 7984ft 160kts
31-Jul-20 16:13 33.118983 -117.386044 342 7989ft 163kts
31-Jul-20 16:14 33.163412 -117.397671 342 7985ft 164kts
31-Jul-20 16:15 33.208509 -117.409501 341 8007ft 167kts
31-Jul-20 16:16 33.250052 -117.430957 312 8003ft 163kts
31-Jul-20 16:17 33.283422 -117.468114 310 7998ft 165kts
31-Jul-20 16:18 33.316606 -117.506528 309 7997ft 166kts
31-Jul-20 16:19 33.349735 -117.545141 309 7997ft 166kts
31-Jul-20 16:20 33.382921 -117.583884 309 7997ft 166kts
31-Jul-20 16:21 33.416017 -117.622568 309 7998ft 166kts
31-Jul-20 16:22 33.449709 -117.662059 309 7679ft 173kts
31-Jul-20 16:23 33.483842 -117.702027 309 7080ft 170kts
31-Jul-20 16:24 33.517663 -117.741752 309 6479ft 168kts
31-Jul-20 16:25 33.550783 -117.780660 310 6026ft 159kts
31-Jul-20 16:26 33.581375 -117.816628 309 6027ft 152kts
31-Jul-20 16:27 33.611986 -117.852698 310 6028ft 159kts
31-Jul-20 16:28 33.644085 -117.890521 310 6028ft 162kts
31-Jul-20 16:29 33.676548 -117.928820 310 6027ft 163kts
31-Jul-20 16:30 33.707675 -117.968456 296 6029ft 160kts
31-Jul-20 16:31 33.730613 -118.014978 295 6028ft 162kts
31-Jul-20 16:32 33.754946 -118.064885 295 6027ft 175kts
31-Jul-20 16:33 33.779604 -118.115535 295 6027ft 174kts
31-Jul-20 16:34 33.803716 -118.165149 296 6027ft 171kts
31-Jul-20 16:35 33.827612 -118.214357 296 6030ft 168kts
31-Jul-20 16:36 33.851172 -118.262930 296 6034ft 166kts
31-Jul-20 16:37 33.874450 -118.310981 296 6040ft 166kts
31-Jul-20 16:38 33.897343 -118.358329 296 6043ft 166kts
31-Jul-20 16:39 33.920706 -118.406724 296 6035ft 166kts
31-Jul-20 16:40 33.940640 -118.456727 287 6035ft 165kts
31-Jul-20 16:41 33.957389 -118.508638 287 6036ft 165kts
31-Jul-20 16:42 33.973954 -118.560522 286 6038ft 166kts
31-Jul-20 16:43 33.990598 -118.612828 287 6012ft 167kts
31-Jul-20 16:44 34.007111 -118.664786 286 6015ft 167kts
31-Jul-20 16:45 34.023800 -118.717396 286 6015ft 168kts
31-Jul-20 16:46 34.040168 -118.770345 284 6013ft 168kts
31-Jul-20 16:47 34.054620 -118.823838 284 6013ft 167kts
31-Jul-20 16:48 34.068903 -118.877172 284 6015ft 166kts
31-Jul-20 16:49 34.083162 -118.930557 285 6018ft 166kts
31-Jul-20 16:50 34.097315 -118.983645 285 6021ft 165kts
31-Jul-20 16:51 34.111508 -119.036991 285 6022ft 165kts
31-Jul-20 16:52 34.130866 -119.087400 293 5454ft 159kts
31-Jul-20 16:53 34.150529 -119.134459 293 4742ft 154kts
31-Jul-20 16:54 34.169821 -119.180526 294 4053ft 151kts
31-Jul-20 16:55 34.188904 -119.226131 294 4016ft 153kts
31-Jul-20 16:56 34.208154 -119.272182 294 4035ft 152kts
31-Jul-20 16:57 34.227307 -119.317951 294 4035ft 152kts
31-Jul-20 16:58 34.246366 -119.363495 294 4035ft 152kts
31-Jul-20 16:59 34.265556 -119.409574 293 4033ft 153kts
31-Jul-20 17:00 34.284812 -119.455881 293 4031ft 154kts
31-Jul-20 17:01 34.304288 -119.502787 293 4028ft 157kts
31-Jul-20 17:02 34.322302 -119.551171 290 4025ft 159kts
31-Jul-20 17:03 34.339965 -119.600790 289 3803ft 160kts
31-Jul-20 17:04 34.357051 -119.650064 289 3090ft 157kts
31-Jul-20 17:05 34.374899 -119.696381 295 2672ft 154kts
31-Jul-20 17:06 34.396443 -119.741148 299 1842ft 145kts
31-Jul-20 17:07 34.414676 -119.773131 305 1520ft 104kts
31-Jul-20 17:08 34.428252 -119.802703 272 717ft 98kts
31-Jul-20 17:09 34.427939 -119.834000 265 49ft 90kts
31-Jul-20 17:10 34.426628 -119.845764 99 17ft 12kts
31-Jul-20 17:11 34.425448 -119.841008 165 17ft 15kts
31-Jul-20 17:12 34.422606 -119.837418 75 17ft 13kts
31-Jul-20 17:13 34.422357 -119.835832 165 17ft 0kts

Navigation Log

Ident Type
Flight plan parsing failed, navigation log unavailable